Time;durP1;ratioP1;P1;durP2;ratioP2;P2;SDS_P1;SDS_P2;PMS_P1;PMS_P2;Temp;Humidity;BMP_temperature;BMP_pressure;BME280_temperature;BME280_humidity;BME280_pressure;Samples;Min_cycle;Max_cycle;Signal;HPM_P1;HPM_P2
2023/12/31 00:01:10;;;;;;;;;;;21.80;37.80;;;;;;5073960;28;20404;-56
2023/12/31 00:03:37;;;;;;;;;;;21.80;37.80;;;;;;5073856;28;19925;-56
2023/12/31 00:06:04;;;;;;;;;;;21.80;37.80;;;;;;5073987;28;19928;-57
2023/12/31 00:08:31;;;;;;;;;;;21.80;37.80;;;;;;5074140;28;20015;-54
2023/12/31 00:11:00;;;;;;;;;;;21.80;37.90;;;;;;5073835;28;19929;-58
2023/12/31 00:13:27;;;;;;;;;;;21.80;37.90;;;;;;5073693;28;19924;-55
2023/12/31 00:15:54;;;;;;;;;;;21.70;37.90;;;;;;5072602;28;19924;-56
2023/12/31 00:18:21;;;;;;;;;;;21.70;37.90;;;;;;5073725;28;19932;-56
2023/12/31 00:20:48;;;;;;;;;;;21.70;37.90;;;;;;5073819;28;19924;-55
2023/12/31 00:23:15;;;;;;;;;;;21.70;37.90;;;;;;5073876;28;20030;-56
2023/12/31 00:25:42;;;;;;;;;;;21.70;37.90;;;;;;5073952;28;19966;-53
2023/12/31 00:28:09;;;;;;;;;;;21.70;37.90;;;;;;5073810;28;19971;-55
2023/12/31 00:30:36;;;;;;;;;;;21.70;37.80;;;;;;5073747;28;20374;-56
2023/12/31 00:33:03;;;;;;;;;;;21.70;37.80;;;;;;5073730;28;19924;-56
2023/12/31 00:35:31;;;;;;;;;;;21.70;37.90;;;;;;5073678;28;19968;-51
2023/12/31 00:37:57;;;;;;;;;;;21.70;37.80;;;;;;5073791;28;19978;-55
2023/12/31 00:40:25;;;;;;;;;;;21.70;37.90;;;;;;5073440;28;19931;-57
2023/12/31 00:42:52;;;;;;;;;;;21.70;37.90;;;;;;5073415;28;20396;-54
2023/12/31 00:45:19;;;;;;;;;;;21.70;37.90;;;;;;5073541;28;20316;-55
2023/12/31 00:47:45;;;;;;;;;;;21.70;37.90;;;;;;5073417;28;20026;-56
2023/12/31 00:50:13;;;;;;;;;;;21.70;37.90;;;;;;5073322;28;20015;-52
2023/12/31 00:52:39;;;;;;;;;;;21.70;37.90;;;;;;5073069;28;20018;-54
2023/12/31 00:55:07;;;;;;;;;;;21.70;37.80;;;;;;5073368;28;19924;-53
2023/12/31 00:57:34;;;;;;;;;;;21.70;37.80;;;;;;5073239;28;19928;-56
2023/12/31 01:00:00;;;;;;;;;;;21.70;37.80;;;;;;5073104;28;19978;-54
2023/12/31 01:02:29;;;;;;;;;;;21.70;37.80;;;;;;5073408;28;19924;-56
2023/12/31 01:04:56;;;;;;;;;;;21.70;37.70;;;;;;5072957;28;19928;-53
2023/12/31 01:07:23;;;;;;;;;;;21.70;37.70;;;;;;5073338;28;19960;-53
2023/12/31 01:09:50;;;;;;;;;;;21.70;37.70;;;;;;5071843;28;20023;-56
2023/12/31 01:12:17;;;;;;;;;;;21.70;37.70;;;;;;5073283;28;19924;-55
2023/12/31 01:14:45;;;;;;;;;;;21.70;37.80;;;;;;5073560;28;19971;-55
2023/12/31 01:17:12;;;;;;;;;;;21.70;37.80;;;;;;5072886;28;19943;-56
2023/12/31 01:19:39;;;;;;;;;;;21.70;38.40;;;;;;5072963;28;19970;-55
2023/12/31 01:22:06;;;;;;;;;;;21.70;37.80;;;;;;5072922;28;19928;-54
2023/12/31 01:24:33;;;;;;;;;;;21.70;37.80;;;;;;5074305;28;19929;-55
2023/12/31 01:27:00;;;;;;;;;;;21.70;37.80;;;;;;5076956;28;19924;-55
2023/12/31 01:29:27;;;;;;;;;;;21.70;37.80;;;;;;5077230;28;19955;-54
2023/12/31 01:31:54;;;;;;;;;;;21.70;37.80;;;;;;5076920;28;20408;-54
2023/12/31 01:34:21;;;;;;;;;;;21.60;37.80;;;;;;5077115;28;19924;-58
2023/12/31 01:36:48;;;;;;;;;;;21.60;37.80;;;;;;5077324;28;19924;-54
2023/12/31 01:39:15;;;;;;;;;;;21.60;37.80;;;;;;5076561;28;19990;-56
2023/12/31 01:41:42;;;;;;;;;;;21.60;37.80;;;;;;5077003;28;19931;-54
2023/12/31 01:44:09;;;;;;;;;;;21.60;37.80;;;;;;5076481;28;20431;-57
2023/12/31 01:46:36;;;;;;;;;;;21.60;38.40;;;;;;5076753;28;19932;-56
2023/12/31 01:49:04;;;;;;;;;;;21.60;37.80;;;;;;5076621;28;19978;-57
2023/12/31 01:51:32;;;;;;;;;;;21.60;37.80;;;;;;5076404;28;19935;-56
2023/12/31 01:54:00;;;;;;;;;;;21.60;37.80;;;;;;5077013;28;19924;-56
2023/12/31 01:56:28;;;;;;;;;;;21.60;37.80;;;;;;5076682;28;19946;-57
2023/12/31 01:58:56;;;;;;;;;;;21.70;37.80;;;;;;5076831;28;19925;-53
2023/12/31 02:01:23;;;;;;;;;;;21.60;37.80;;;;;;5076338;28;19928;-56
2023/12/31 02:03:50;;;;;;;;;;;21.60;37.80;;;;;;5076376;28;20400;-56
2023/12/31 02:06:17;;;;;;;;;;;21.70;37.80;;;;;;5076514;28;20007;-54
2023/12/31 02:08:44;;;;;;;;;;;21.70;37.80;;;;;;5076147;28;19925;-55
2023/12/31 02:11:11;;;;;;;;;;;21.60;37.70;;;;;;5076479;28;19924;-56
2023/12/31 02:13:38;;;;;;;;;;;21.60;37.70;;;;;;5076841;28;19932;-54
2023/12/31 02:16:13;;;;;;;;;;;21.60;37.70;;;;;;5075953;28;19967;-56
2023/12/31 02:18:40;;;;;;;;;;;21.60;37.70;;;;;;5075197;28;19931;-53
2023/12/31 02:21:07;;;;;;;;;;;21.60;37.80;;;;;;5075361;28;19928;-56
2023/12/31 02:23:34;;;;;;;;;;;21.60;37.80;;;;;;5074908;28;19929;-56
2023/12/31 02:26:06;;;;;;;;;;;21.60;37.80;;;;;;5074807;28;19931;-57
2023/12/31 02:28:33;;;;;;;;;;;21.60;37.80;;;;;;5074964;28;19929;-53
2023/12/31 02:31:00;;;;;;;;;;;21.60;37.80;;;;;;5074686;28;19925;-56
2023/12/31 02:33:27;;;;;;;;;;;21.60;37.80;;;;;;5074992;28;19924;-53
2023/12/31 02:35:54;;;;;;;;;;;21.60;37.80;;;;;;5074256;28;19932;-54
2023/12/31 02:38:21;;;;;;;;;;;21.60;37.80;;;;;;5074465;28;19970;-56
2023/12/31 02:40:48;;;;;;;;;;;21.60;37.80;;;;;;5074394;28;19962;-54
2023/12/31 02:43:15;;;;;;;;;;;21.60;37.70;;;;;;5074574;28;19924;-57
2023/12/31 02:45:42;;;;;;;;;;;21.60;37.70;;;;;;5074524;28;19925;-56
2023/12/31 02:48:09;;;;;;;;;;;21.60;37.80;;;;;;5074810;28;20015;-54
2023/12/31 02:50:36;;;;;;;;;;;21.60;37.80;;;;;;5074288;28;19972;-55
2023/12/31 02:53:03;;;;;;;;;;;21.60;37.80;;;;;;5074116;28;19966;-52
2023/12/31 02:55:30;;;;;;;;;;;21.60;37.80;;;;;;5074018;28;19924;-55
2023/12/31 02:57:57;;;;;;;;;;;21.50;37.70;;;;;;5074480;28;19931;-56
2023/12/31 03:00:24;;;;;;;;;;;21.60;37.80;;;;;;5074164;28;19955;-55
2023/12/31 03:02:51;;;;;;;;;;;21.60;37.70;;;;;;5074562;28;19924;-54
2023/12/31 03:05:18;;;;;;;;;;;21.60;37.70;;;;;;5074324;28;20392;-56
2023/12/31 03:07:45;;;;;;;;;;;21.60;37.70;;;;;;5074278;28;19924;-55
2023/12/31 03:10:12;;;;;;;;;;;21.60;37.70;;;;;;5073674;28;20321;-54
2023/12/31 03:12:39;;;;;;;;;;;21.60;37.70;;;;;;5074177;28;19925;-54
2023/12/31 03:15:08;;;;;;;;;;;21.60;37.70;;;;;;5074313;28;19925;-55
2023/12/31 03:17:35;;;;;;;;;;;21.60;38.20;;;;;;5007474;28;1898359;-56
2023/12/31 03:20:03;;;;;;;;;;;21.60;37.70;;;;;;5074787;28;19968;-57
2023/12/31 03:22:29;;;;;;;;;;;21.60;37.70;;;;;;5074706;28;19924;-51
2023/12/31 03:25:08;;;;;;;;;;;21.60;37.70;;;;;;5074269;28;20397;-55
2023/12/31 03:27:35;;;;;;;;;;;21.60;37.70;;;;;;5074663;28;19932;-55
2023/12/31 03:30:02;;;;;;;;;;;21.60;37.70;;;;;;5074896;28;19932;-55
2023/12/31 03:32:29;;;;;;;;;;;21.60;37.70;;;;;;5074457;28;20289;-54
2023/12/31 03:34:56;;;;;;;;;;;21.50;37.60;;;;;;5075089;28;19925;-59
2023/12/31 03:37:23;;;;;;;;;;;21.50;37.70;;;;;;5074593;28;19967;-56
2023/12/31 03:39:51;;;;;;;;;;;21.50;37.70;;;;;;5074706;28;19974;-57
2023/12/31 03:42:19;;;;;;;;;;;21.50;37.70;;;;;;5074762;28;20312;-57
2023/12/31 03:44:47;;;;;;;;;;;21.50;37.60;;;;;;5074752;28;20015;-54
2023/12/31 03:47:14;;;;;;;;;;;21.50;37.70;;;;;;5073516;28;19966;-56
2023/12/31 03:49:40;;;;;;;;;;;21.50;37.60;;;;;;5074625;28;19924;-56
2023/12/31 03:52:08;;;;;;;;;;;21.50;37.70;;;;;;5073381;28;20380;-55
2023/12/31 03:54:34;;;;;;;;;;;21.50;37.60;;;;;;5074268;28;19931;-56
2023/12/31 03:57:02;;;;;;;;;;;21.50;37.60;;;;;;5072964;28;19925;-55
2023/12/31 03:59:29;;;;;;;;;;;21.50;37.60;;;;;;5074072;28;19924;-55
2023/12/31 04:01:58;;;;;;;;;;;21.50;37.60;;;;;;5074038;28;19928;-56
2023/12/31 04:04:25;;;;;;;;;;;21.50;37.60;;;;;;5073712;28;20296;-56
2023/12/31 04:06:52;;;;;;;;;;;21.50;37.60;;;;;;5074352;28;19924;-55
2023/12/31 04:09:19;;;;;;;;;;;21.60;37.70;;;;;;5074190;28;19931;-56
2023/12/31 04:11:46;;;;;;;;;;;21.50;37.60;;;;;;5074200;28;19924;-57
2023/12/31 04:14:13;;;;;;;;;;;21.60;37.70;;;;;;5072804;28;19974;-56
2023/12/31 04:16:40;;;;;;;;;;;21.50;37.60;;;;;;5072850;28;19924;-54
2023/12/31 04:19:07;;;;;;;;;;;21.60;37.70;;;;;;5073713;28;19978;-56
2023/12/31 04:21:33;;;;;;;;;;;21.60;37.60;;;;;;5073747;28;19935;-55
2023/12/31 04:24:00;;;;;;;;;;;21.60;37.60;;;;;;5074103;28;20342;-56
2023/12/31 04:26:27;;;;;;;;;;;21.50;37.60;;;;;;5073561;28;19978;-55
2023/12/31 04:28:54;;;;;;;;;;;21.60;37.70;;;;;;5073841;28;19970;-56
2023/12/31 04:31:21;;;;;;;;;;;21.60;37.70;;;;;;5073549;28;19931;-55
2023/12/31 04:33:48;;;;;;;;;;;21.50;37.60;;;;;;5073515;28;20028;-53
2023/12/31 04:36:15;;;;;;;;;;;21.50;37.60;;;;;;5073732;28;19928;-55
2023/12/31 04:38:43;;;;;;;;;;;21.50;37.60;;;;;;5073844;28;19925;-55
2023/12/31 04:41:18;;;;;;;;;;;21.50;37.50;;;;;;5073427;28;20007;-54
2023/12/31 04:43:45;;;;;;;;;;;21.60;37.40;;;;;;5073705;28;20332;-56
2023/12/31 04:46:12;;;;;;;;;;;21.60;37.30;;;;;;5072438;28;19931;-56
2023/12/31 04:48:41;;;;;;;;;;;21.60;37.20;;;;;;5073010;28;19960;-55
2023/12/31 04:51:08;;;;;;;;;;;21.60;37.10;;;;;;5073132;28;20014;-54
2023/12/31 04:53:36;;;;;;;;;;;21.60;37.00;;;;;;5072712;28;20409;-55
2023/12/31 04:56:03;;;;;;;;;;;21.60;37.00;;;;;;5073575;28;20289;-55
2023/12/31 04:58:29;;;;;;;;;;;21.60;36.90;;;;;;5073188;28;19980;-54
2023/12/31 05:00:56;;;;;;;;;;;21.60;36.90;;;;;;5073308;28;19972;-55
2023/12/31 05:03:23;;;;;;;;;;;21.60;36.80;;;;;;5073305;28;19924;-55
2023/12/31 05:05:50;;;;;;;;;;;21.60;36.80;;;;;;5073140;28;19990;-56
2023/12/31 05:08:17;;;;;;;;;;;21.60;36.80;;;;;;5072997;28;19929;-56
2023/12/31 05:10:44;;;;;;;;;;;21.60;36.70;;;;;;5072991;28;19930;-58
2023/12/31 05:13:11;;;;;;;;;;;21.70;36.70;;;;;;5073200;28;19930;-54
2023/12/31 05:15:39;;;;;;;;;;;21.70;36.60;;;;;;5073324;28;19982;-55
2023/12/31 05:18:06;;;;;;;;;;;21.70;36.60;;;;;;5072961;28;19924;-55
2023/12/31 05:20:33;;;;;;;;;;;21.70;36.60;;;;;;5072801;28;19979;-57
2023/12/31 05:23:00;;;;;;;;;;;21.70;36.50;;;;;;5073219;28;19967;-57
2023/12/31 05:25:27;;;;;;;;;;;21.80;36.50;;;;;;5072049;28;19940;-56
2023/12/31 05:27:54;;;;;;;;;;;21.80;36.40;;;;;;5073086;28;19978;-55
2023/12/31 05:30:22;;;;;;;;;;;21.80;36.40;;;;;;5073314;28;19967;-56
2023/12/31 05:32:49;;;;;;;;;;;21.80;36.40;;;;;;5073127;28;20352;-58
2023/12/31 05:35:16;;;;;;;;;;;21.80;36.30;;;;;;5072878;28;19936;-56
2023/12/31 05:37:43;;;;;;;;;;;21.80;36.30;;;;;;5073204;28;19924;-56
2023/12/31 05:40:11;;;;;;;;;;;21.80;36.30;;;;;;5072865;28;19959;-57
2023/12/31 05:42:38;;;;;;;;;;;21.80;36.20;;;;;;5055093;28;19935;-57
2023/12/31 05:45:05;;;;;;;;;;;21.80;36.20;;;;;;5072668;28;19929;-56
2023/12/31 05:47:32;;;;;;;;;;;21.90;36.20;;;;;;5072604;28;19972;-56
2023/12/31 05:50:13;;;;;;;;;;;21.80;36.10;;;;;;5073061;28;19924;-56
2023/12/31 05:52:40;;;;;;;;;;;21.90;36.20;;;;;;5072960;28;19978;-55
2023/12/31 05:55:08;;;;;;;;;;;21.90;36.10;;;;;;5072698;28;19925;-56
2023/12/31 05:57:35;;;;;;;;;;;21.80;36.10;;;;;;5073079;28;19928;-57
2023/12/31 06:00:05;;;;;;;;;;;21.80;36.10;;;;;;5072956;28;19928;-55
2023/12/31 06:02:32;;;;;;;;;;;21.80;36.10;;;;;;5072515;28;19929;-53
2023/12/31 06:04:59;;;;;;;;;;;21.80;36.10;;;;;;5072752;28;19966;-55
2023/12/31 06:07:26;;;;;;;;;;;21.90;36.10;;;;;;5072541;28;19925;-55
2023/12/31 06:09:53;;;;;;;;;;;21.90;36.10;;;;;;5072832;28;19947;-54
2023/12/31 06:12:20;;;;;;;;;;;21.90;36.10;;;;;;5076070;28;20007;-55
2023/12/31 06:14:47;;;;;;;;;;;21.90;36.00;;;;;;5076460;28;19970;-56
2023/12/31 06:17:14;;;;;;;;;;;21.90;36.10;;;;;;5076113;28;19932;-54
2023/12/31 06:19:41;;;;;;;;;;;21.90;36.00;;;;;;5076126;28;20369;-55
2023/12/31 06:22:08;;;;;;;;;;;21.90;36.00;;;;;;5075936;28;20377;-56
2023/12/31 06:24:35;;;;;;;;;;;21.90;36.00;;;;;;5075696;28;19929;-56
2023/12/31 06:27:02;;;;;;;;;;;21.90;36.00;;;;;;5075761;28;20298;-55
2023/12/31 06:29:28;;;;;;;;;;;21.90;35.90;;;;;;5075782;28;19981;-54
2023/12/31 06:31:55;;;;;;;;;;;22.00;36.00;;;;;;5075873;28;19925;-55
2023/12/31 06:34:22;;;;;;;;;;;22.00;35.90;;;;;;5075749;28;19924;-56
2023/12/31 06:36:49;;;;;;;;;;;22.00;35.90;;;;;;5075786;28;19939;-56
2023/12/31 06:39:16;;;;;;;;;;;22.00;35.90;;;;;;5075695;28;19931;-55
2023/12/31 06:41:43;;;;;;;;;;;22.00;35.80;;;;;;5075569;28;19925;-56
2023/12/31 06:44:10;;;;;;;;;;;22.00;35.80;;;;;;5075940;28;19966;-55
2023/12/31 06:46:37;;;;;;;;;;;22.00;35.80;;;;;;5075576;28;19967;-55
2023/12/31 06:49:04;;;;;;;;;;;22.00;35.80;;;;;;5075570;28;19924;-56
2023/12/31 06:51:31;;;;;;;;;;;22.00;35.80;;;;;;5075585;28;19924;-55
2023/12/31 06:53:58;;;;;;;;;;;22.00;35.80;;;;;;5075358;28;19971;-55
2023/12/31 06:56:25;;;;;;;;;;;22.00;35.80;;;;;;5075749;28;20328;-56
2023/12/31 06:58:52;;;;;;;;;;;22.00;35.80;;;;;;5075637;28;20370;-55
2023/12/31 07:01:19;;;;;;;;;;;22.10;35.80;;;;;;5075480;28;19928;-54
2023/12/31 07:03:46;;;;;;;;;;;22.10;35.90;;;;;;5075423;28;19924;-55
2023/12/31 07:06:13;;;;;;;;;;;22.00;35.80;;;;;;5074420;28;20293;-55
2023/12/31 07:08:40;;;;;;;;;;;22.10;35.80;;;;;;5075574;28;20289;-54
2023/12/31 07:11:07;;;;;;;;;;;22.10;35.80;;;;;;5075432;28;19931;-57
2023/12/31 07:13:34;;;;;;;;;;;22.10;35.90;;;;;;5075374;28;19975;-56
2023/12/31 07:16:01;;;;;;;;;;;22.10;35.80;;;;;;5074901;28;20404;-56
2023/12/31 07:18:28;;;;;;;;;;;22.10;35.80;;;;;;5057198;28;20019;-56
2023/12/31 07:20:55;;;;;;;;;;;22.10;35.80;;;;;;5074792;28;19966;-56
2023/12/31 07:23:22;;;;;;;;;;;22.10;35.80;;;;;;5074055;28;20361;-55
2023/12/31 07:25:50;;;;;;;;;;;22.10;35.80;;;;;;5074965;28;20023;-55
2023/12/31 07:28:17;;;;;;;;;;;22.10;35.80;;;;;;5074746;28;20380;-56
2023/12/31 07:30:44;;;;;;;;;;;22.20;35.90;;;;;;5075055;28;19924;-57
2023/12/31 07:33:11;;;;;;;;;;;22.20;35.90;;;;;;5074672;28;20301;-56
2023/12/31 07:35:41;;;;;;;;;;;22.20;35.80;;;;;;5074622;28;19929;-56
2023/12/31 07:38:08;;;;;;;;;;;22.20;35.80;;;;;;5075063;28;19931;-57
2023/12/31 07:40:35;;;;;;;;;;;22.20;35.80;;;;;;5074712;28;19929;-56
2023/12/31 07:43:02;;;;;;;;;;;22.30;35.80;;;;;;5074864;28;20441;-56
2023/12/31 07:45:31;;;;;;;;;;;22.30;35.80;;;;;;5074370;28;19931;-56
2023/12/31 07:47:58;;;;;;;;;;;22.30;35.80;;;;;;5074319;28;19932;-55
2023/12/31 07:50:25;;;;;;;;;;;22.40;35.80;;;;;;5074575;28;20340;-55
2023/12/31 07:52:52;;;;;;;;;;;22.40;35.80;;;;;;5074300;28;20407;-56
2023/12/31 07:55:19;;;;;;;;;;;22.40;35.80;;;;;;5074444;28;19928;-56
2023/12/31 07:57:46;;;;;;;;;;;22.40;35.80;;;;;;5074394;28;19931;-55
2023/12/31 08:00:13;;;;;;;;;;;22.40;35.80;;;;;;5074088;28;20436;-55
2023/12/31 08:02:40;;;;;;;;;;;22.40;35.80;;;;;;5073917;28;19967;-56
2023/12/31 08:05:07;;;;;;;;;;;22.40;35.70;;;;;;5074145;28;19932;-55
2023/12/31 08:07:34;;;;;;;;;;;22.50;35.80;;;;;;5073835;28;20024;-56
2023/12/31 08:10:01;;;;;;;;;;;22.50;35.80;;;;;;5074053;28;19925;-55
2023/12/31 08:12:28;;;;;;;;;;;22.50;35.80;;;;;;5073993;28;19925;-55
2023/12/31 08:14:54;;;;;;;;;;;22.50;35.80;;;;;;5074289;28;20019;-56
2023/12/31 08:17:23;;;;;;;;;;;22.50;35.70;;;;;;5073592;28;20289;-56
2023/12/31 08:19:50;;;;;;;;;;;22.50;35.70;;;;;;5074074;28;20007;-55
2023/12/31 08:22:18;;;;;;;;;;;22.50;35.70;;;;;;5073583;28;19924;-56
2023/12/31 08:24:45;;;;;;;;;;;22.50;35.70;;;;;;5056017;28;19924;-56
2023/12/31 08:27:12;;;;;;;;;;;22.50;35.70;;;;;;5073655;28;20293;-55
2023/12/31 08:29:40;;;;;;;;;;;22.60;35.70;;;;;;5074095;28;20027;-56
2023/12/31 08:32:07;;;;;;;;;;;22.60;35.70;;;;;;5073703;28;19986;-55
2023/12/31 08:34:34;;;;;;;;;;;22.60;35.70;;;;;;5073465;28;19937;-56
2023/12/31 08:37:01;;;;;;;;;;;22.60;35.70;;;;;;5073267;28;19928;-56
2023/12/31 08:39:29;;;;;;;;;;;22.60;35.70;;;;;;5073635;28;19924;-54
2023/12/31 08:41:56;;;;;;;;;;;22.70;35.70;;;;;;5073679;28;19951;-54
2023/12/31 08:44:23;;;;;;;;;;;22.70;36.30;;;;;;5073722;28;20328;-56
2023/12/31 08:46:50;;;;;;;;;;;22.70;35.70;;;;;;5072932;28;19924;-56
2023/12/31 08:49:18;;;;;;;;;;;22.70;35.70;;;;;;5073528;28;20258;-54
2023/12/31 08:51:45;;;;;;;;;;;22.70;35.70;;;;;;5073457;28;19924;-54
2023/12/31 08:54:12;;;;;;;;;;;22.70;35.70;;;;;;5073631;28;19925;-55
2023/12/31 08:56:39;;;;;;;;;;;22.70;35.80;;;;;;5073259;28;19924;-55
2023/12/31 08:59:06;;;;;;;;;;;22.70;35.60;;;;;;5073492;28;19924;-55
2023/12/31 09:01:33;;;;;;;;;;;22.80;35.70;;;;;;5073045;28;19958;-55
2023/12/31 09:04:00;;;;;;;;;;;22.80;35.60;;;;;;5073154;28;19983;-55
2023/12/31 09:06:28;;;;;;;;;;;22.80;35.60;;;;;;5073264;28;19924;-55
2023/12/31 09:08:55;;;;;;;;;;;22.80;35.60;;;;;;5073284;28;19925;-55
2023/12/31 09:11:22;;;;;;;;;;;22.80;35.60;;;;;;5073255;28;19963;-56
2023/12/31 09:13:48;;;;;;;;;;;22.90;35.60;;;;;;5073153;28;20388;-56
2023/12/31 09:16:15;;;;;;;;;;;22.90;35.60;;;;;;5072948;28;20415;-55
2023/12/31 09:18:42;;;;;;;;;;;22.90;35.60;;;;;;5073442;28;20356;-56
2023/12/31 09:21:09;;;;;;;;;;;22.90;35.50;;;;;;5055478;28;20285;-56
2023/12/31 09:23:36;;;;;;;;;;;23.00;35.60;;;;;;5073164;28;19932;-53
2023/12/31 09:26:03;;;;;;;;;;;23.00;35.60;;;;;;5072885;28;20393;-56
2023/12/31 09:28:30;;;;;;;;;;;23.00;35.50;;;;;;5073232;28;19928;-55
2023/12/31 09:30:57;;;;;;;;;;;23.00;35.60;;;;;;5073197;28;20293;-54
2023/12/31 09:33:25;;;;;;;;;;;23.00;35.50;;;;;;5072980;28;19929;-56
2023/12/31 09:35:52;;;;;;;;;;;23.00;35.50;;;;;;5073102;28;19968;-55
2023/12/31 09:38:18;;;;;;;;;;;23.00;35.50;;;;;;5073111;28;19932;-56
2023/12/31 09:40:46;;;;;;;;;;;23.00;35.50;;;;;;5072638;28;19924;-56
2023/12/31 09:43:16;;;;;;;;;;;23.00;35.50;;;;;;5072948;28;19971;-54
2023/12/31 09:45:43;;;;;;;;;;;23.10;35.50;;;;;;5075035;28;20281;-56
2023/12/31 09:48:10;;;;;;;;;;;23.10;35.50;;;;;;5076962;28;19928;-55
2023/12/31 09:50:38;;;;;;;;;;;23.10;35.50;;;;;;5076373;28;19977;-57
2023/12/31 09:53:05;;;;;;;;;;;23.10;35.40;;;;;;5076609;28;19936;-57
2023/12/31 09:55:34;;;;;;;;;;;23.10;35.40;;;;;;5076631;28;19970;-57
2023/12/31 09:58:02;;;;;;;;;;;23.20;35.50;;;;;;5076491;28;19975;-56
2023/12/31 10:00:29;;;;;;;;;;;23.20;35.40;;;;;;5076388;28;20328;-57
2023/12/31 10:02:56;;;;;;;;;;;23.20;35.40;;;;;;5076857;28;19999;-56
2023/12/31 10:05:25;;;;;;;;;;;23.20;35.40;;;;;;5076551;28;19950;-55
2023/12/31 10:07:54;;;;;;;;;;;23.30;35.50;;;;;;5076022;28;19931;-58
2023/12/31 10:10:22;;;;;;;;;;;23.30;35.40;;;;;;5076590;28;19968;-58
2023/12/31 10:12:49;;;;;;;;;;;23.30;35.40;;;;;;5076474;28;19970;-63
2023/12/31 10:15:16;;;;;;;;;;;23.30;36.00;;;;;;5058433;28;19933;-60
2023/12/31 10:17:43;;;;;;;;;;;23.30;35.40;;;;;;5076114;28;19931;-59
2023/12/31 10:20:10;;;;;;;;;;;23.40;35.40;;;;;;5076391;28;19924;-60
2023/12/31 10:22:37;;;;;;;;;;;23.40;35.40;;;;;;5076028;28;19924;-59
2023/12/31 10:25:14;;;;;;;;;;;23.40;35.40;;;;;;5076223;28;20437;-60
2023/12/31 10:27:48;;;;;;;;;;;23.40;35.40;;;;;;5075678;28;19929;-57
2023/12/31 10:30:15;;;;;;;;;;;23.40;35.30;;;;;;5074079;28;20043;-59
2023/12/31 10:32:42;;;;;;;;;;;23.40;35.30;;;;;;5074994;28;20395;-62
2023/12/31 10:35:09;;;;;;;;;;;23.40;35.30;;;;;;5075062;28;19971;-57
2023/12/31 10:37:37;;;;;;;;;;;23.50;35.40;;;;;;5075286;28;19935;-67
2023/12/31 10:40:18;;;;;;;;;;;23.50;35.40;;;;;;5075652;28;19925;-61
2023/12/31 10:42:51;;;;;;;;;;;23.50;35.30;;;;;;5075491;28;19924;-59
2023/12/31 10:45:19;;;;;;;;;;;23.50;35.30;;;;;;5075642;28;20370;-61
2023/12/31 10:47:50;;;;;;;;;;;23.50;35.20;;;;;;5075720;28;19993;-60
2023/12/31 10:50:20;;;;;;;;;;;23.50;35.20;;;;;;5058264;28;19925;-55
2023/12/31 10:52:49;;;;;;;;;;;23.60;35.20;;;;;;5075331;28;19924;-57
2023/12/31 10:55:17;;;;;;;;;;;23.60;35.20;;;;;;5075564;28;19931;-56
2023/12/31 10:57:44;;;;;;;;;;;23.60;35.80;;;;;;5075336;28;19925;-54
2023/12/31 11:00:19;;;;;;;;;;;23.60;35.20;;;;;;5075505;28;19928;-56
2023/12/31 11:02:49;;;;;;;;;;;23.70;35.20;;;;;;5074750;28;19932;-56
2023/12/31 11:05:17;;;;;;;;;;;23.60;35.10;;;;;;5073835;28;19924;-56
2023/12/31 11:07:46;;;;;;;;;;;23.70;35.10;;;;;;5074827;28;20286;-55
2023/12/31 11:10:13;;;;;;;;;;;23.70;35.10;;;;;;5057262;28;19931;-57
2023/12/31 11:12:40;;;;;;;;;;;23.70;35.10;;;;;;5075347;28;19924;-56
2023/12/31 11:15:10;;;;;;;;;;;23.70;35.00;;;;;;5073940;28;20380;-56
2023/12/31 11:17:57;;;;;;;;;;;23.80;35.10;;;;;;5071490;28;19932;-56
2023/12/31 11:20:45;;;;;;;;;;;23.80;35.00;;;;;;5074777;28;19928;-54
2023/12/31 11:23:32;;;;;;;;;;;23.80;35.00;;;;;;5057263;28;19979;-56
2023/12/31 11:25:59;;;;;;;;;;;23.80;35.00;;;;;;5059895;28;20330;-56
2023/12/31 11:28:27;;;;;;;;;;;23.90;35.00;;;;;;5074991;28;19924;-56
2023/12/31 11:30:57;;;;;;;;;;;23.90;35.00;;;;;;5075016;28;19931;-56
2023/12/31 11:33:27;;;;;;;;;;;23.90;35.00;;;;;;5074444;28;19968;-57
2023/12/31 11:35:56;;;;;;;;;;;23.90;35.00;;;;;;5074675;28;20015;-56
2023/12/31 11:38:25;;;;;;;;;;;23.90;35.00;;;;;;5074377;28;19986;-55
2023/12/31 11:40:53;;;;;;;;;;;23.90;35.00;;;;;;5074836;28;19978;-52
2023/12/31 11:43:21;;;;;;;;;;;23.90;34.90;;;;;;5074581;28;19981;-57
2023/12/31 11:45:48;;;;;;;;;;;23.90;35.50;;;;;;5074630;28;19977;-58
2023/12/31 11:48:25;;;;;;;;;;;23.90;34.90;;;;;;5074454;28;19950;-56
2023/12/31 11:50:54;;;;;;;;;;;23.90;34.90;;;;;;5074656;28;19970;-56
2023/12/31 11:53:22;;;;;;;;;;;24.00;34.90;;;;;;5074213;28;19971;-55
2023/12/31 11:55:50;;;;;;;;;;;23.90;34.90;;;;;;5074215;28;19925;-57
2023/12/31 11:58:17;;;;;;;;;;;24.00;34.90;;;;;;5074318;28;19924;-57
2023/12/31 12:00:44;;;;;;;;;;;24.00;34.90;;;;;;5074152;28;19928;-57
2023/12/31 12:03:12;;;;;;;;;;;24.00;34.90;;;;;;5074444;28;19974;-57
2023/12/31 12:05:39;;;;;;;;;;;24.00;34.90;;;;;;5074435;28;20361;-56
2023/12/31 12:08:08;;;;;;;;;;;23.90;34.90;;;;;;5073136;28;19968;-57
2023/12/31 12:10:35;;;;;;;;;;;23.90;34.90;;;;;;5074228;28;20312;-55
2023/12/31 12:13:02;;;;;;;;;;;24.00;34.90;;;;;;5073737;28;20443;-55
2023/12/31 12:15:34;;;;;;;;;;;24.00;34.90;;;;;;5073861;28;19970;-55
2023/12/31 12:18:02;;;;;;;;;;;24.00;34.90;;;;;;5073771;28;19924;-56
2023/12/31 12:20:29;;;;;;;;;;;24.00;34.90;;;;;;5073661;28;19929;-56
2023/12/31 12:23:01;;;;;;;;;;;24.00;34.90;;;;;;5073984;28;19931;-55
2023/12/31 12:25:29;;;;;;;;;;;24.00;34.90;;;;;;5074069;28;19924;-56
2023/12/31 12:27:56;;;;;;;;;;;24.00;34.90;;;;;;5073615;28;20007;-56
2023/12/31 12:30:27;;;;;;;;;;;24.00;34.90;;;;;;5073751;28;19930;-54
2023/12/31 12:32:59;;;;;;;;;;;24.00;34.90;;;;;;5073831;28;19932;-55
2023/12/31 12:35:29;;;;;;;;;;;24.00;34.90;;;;;;5073706;28;19928;-56
2023/12/31 12:37:56;;;;;;;;;;;24.00;34.90;;;;;;5073774;28;19986;-58
2023/12/31 12:40:23;;;;;;;;;;;24.00;34.90;;;;;;5073782;28;19931;-56
2023/12/31 12:42:52;;;;;;;;;;;24.00;35.00;;;;;;5073774;28;20015;-56
2023/12/31 12:45:20;;;;;;;;;;;24.00;35.00;;;;;;5073804;28;20328;-56
2023/12/31 12:47:48;;;;;;;;;;;24.00;34.90;;;;;;5073338;28;19939;-55
2023/12/31 12:50:15;;;;;;;;;;;24.00;34.90;;;;;;5055995;28;19925;-57
2023/12/31 12:52:42;;;;;;;;;;;24.00;35.00;;;;;;5073613;28;20284;-57
2023/12/31 12:55:09;;;;;;;;;;;23.90;35.50;;;;;;5073456;28;19924;-57
2023/12/31 12:57:36;;;;;;;;;;;24.00;34.90;;;;;;5073115;28;19982;-56
2023/12/31 13:00:04;;;;;;;;;;;24.00;34.90;;;;;;5073447;28;19924;-57
2023/12/31 13:02:34;;;;;;;;;;;24.00;35.00;;;;;;5073043;28;20429;-57
2023/12/31 13:05:00;;;;;;;;;;;24.00;34.90;;;;;;5055629;28;19924;-58
2023/12/31 13:07:27;;;;;;;;;;;24.00;35.00;;;;;;5055145;28;20431;-56
2023/12/31 13:09:54;;;;;;;;;;;24.00;35.00;;;;;;5073253;28;19931;-56
2023/12/31 13:12:21;;;;;;;;;;;24.00;35.00;;;;;;5072953;28;19986;-57
2023/12/31 13:14:48;;;;;;;;;;;24.00;35.50;;;;;;5073589;28;19978;-56
2023/12/31 13:17:15;;;;;;;;;;;24.00;35.00;;;;;;5072921;28;19924;-56
2023/12/31 13:19:42;;;;;;;;;;;24.00;35.00;;;;;;5074806;28;19974;-56
2023/12/31 13:22:09;;;;;;;;;;;24.00;35.00;;;;;;5077300;28;19924;-56
2023/12/31 13:24:36;;;;;;;;;;;24.00;35.00;;;;;;5077226;28;20022;-56
2023/12/31 13:27:04;;;;;;;;;;;24.00;35.00;;;;;;5076998;28;19925;-57
2023/12/31 13:29:31;;;;;;;;;;;24.00;35.00;;;;;;5077037;28;19925;-55
2023/12/31 13:31:57;;;;;;;;;;;24.00;35.00;;;;;;5076727;28;19959;-56
2023/12/31 13:34:25;;;;;;;;;;;24.00;35.00;;;;;;5076909;28;20366;-57
2023/12/31 13:36:52;;;;;;;;;;;24.00;35.10;;;;;;5076829;28;19924;-56
2023/12/31 13:39:19;;;;;;;;;;;24.00;35.10;;;;;;5077002;28;19925;-57
2023/12/31 13:41:46;;;;;;;;;;;24.00;35.10;;;;;;5076830;28;20019;-55
2023/12/31 13:44:12;;;;;;;;;;;24.00;35.10;;;;;;5077245;28;19931;-56
2023/12/31 13:46:42;;;;;;;;;;;24.00;35.10;;;;;;5076673;28;20026;-56
2023/12/31 13:49:09;;;;;;;;;;;23.90;35.00;;;;;;5077029;28;19987;-56
2023/12/31 13:51:36;;;;;;;;;;;24.00;35.10;;;;;;5076745;28;19929;-57
2023/12/31 13:54:03;;;;;;;;;;;24.00;35.10;;;;;;5076530;28;19955;-57
2023/12/31 13:56:30;;;;;;;;;;;24.00;35.10;;;;;;5076818;28;20015;-55
2023/12/31 13:58:57;;;;;;;;;;;24.00;35.10;;;;;;5076546;28;20397;-56
2023/12/31 14:01:24;;;;;;;;;;;23.90;35.10;;;;;;5076583;28;19970;-56
2023/12/31 14:03:51;;;;;;;;;;;23.90;35.10;;;;;;5076508;28;20385;-55
2023/12/31 14:06:18;;;;;;;;;;;24.00;35.20;;;;;;5076603;28;19924;-57
2023/12/31 14:08:45;;;;;;;;;;;23.90;35.10;;;;;;5058674;28;19924;-57
2023/12/31 14:11:12;;;;;;;;;;;23.90;35.10;;;;;;5076882;28;19932;-58
2023/12/31 14:13:39;;;;;;;;;;;23.90;35.20;;;;;;5076218;28;19924;-56
2023/12/31 14:16:06;;;;;;;;;;;23.90;35.20;;;;;;5076392;28;20251;-57
2023/12/31 14:18:33;;;;;;;;;;;23.90;35.20;;;;;;5075892;28;20432;-55